createdAt,value
2023-05-01T00:02:37.209Z,51.47
2023-05-01T00:05:39.303Z,51.51
2023-05-01T00:08:41.533Z,51.56
2023-05-01T00:11:43.609Z,51.53
2023-05-01T00:14:45.713Z,51.59
2023-05-01T00:17:48.000Z,51.66
2023-05-01T00:20:50.039Z,51.62
2023-05-01T00:23:52.153Z,51.59
2023-05-01T00:26:54.264Z,51.70
2023-05-01T00:29:56.507Z,51.67
2023-05-01T00:32:59.500Z,51.72
2023-05-01T00:36:01.541Z,51.76
2023-05-01T00:39:04.252Z,51.71
2023-05-01T00:42:06.654Z,51.75
2023-05-01T00:45:09.342Z,51.79
2023-05-01T00:48:11.703Z,51.77
2023-05-01T00:51:14.158Z,51.79
2023-05-01T00:54:16.278Z,51.85
2023-05-01T00:57:21.959Z,51.91
2023-05-01T01:00:24.740Z,51.81
2023-05-01T01:03:27.550Z,51.82
2023-05-01T01:06:51.202Z,51.89
2023-05-01T01:10:13.987Z,51.84
2023-05-01T01:13:31.627Z,51.83
2023-05-01T01:16:45.357Z,51.85
2023-05-01T01:20:08.688Z,51.85
2023-05-01T01:23:42.873Z,51.96
2023-05-01T01:27:22.467Z,51.97
2023-05-01T01:30:34.529Z,51.88
2023-05-01T01:34:10.659Z,51.95
2023-05-01T01:37:43.337Z,52.02
2023-05-01T01:41:00.550Z,52.04
2023-05-01T01:44:13.981Z,51.96
2023-05-01T01:47:17.546Z,51.96
2023-05-01T01:50:22.354Z,52.06
2023-05-01T01:53:28.312Z,52.09
2023-05-01T01:56:32.934Z,52.07
2023-05-01T01:59:35.569Z,52.04
2023-05-01T02:02:39.379Z,52.15
2023-05-01T02:05:43.307Z,52.17
2023-05-01T02:08:48.314Z,52.21
2023-05-01T02:11:51.777Z,52.20
2023-05-01T02:14:54.468Z,52.22
2023-05-01T02:17:57.135Z,52.19
2023-05-01T02:21:00.824Z,52.28
2023-05-01T02:24:04.775Z,52.27
2023-05-01T02:27:23.233Z,52.33
2023-05-01T02:30:25.611Z,52.33
2023-05-01T02:33:28.255Z,52.27
2023-05-01T02:36:31.930Z,52.29
2023-05-01T02:39:34.704Z,52.37
2023-05-01T02:42:37.902Z,52.43
2023-05-01T02:45:42.271Z,52.40
2023-05-01T02:48:46.059Z,52.46
2023-05-01T02:51:49.061Z,52.39
2023-05-01T02:54:51.661Z,52.42
2023-05-01T02:57:57.429Z,52.45
2023-05-01T03:00:59.484Z,52.41
2023-05-01T03:04:01.695Z,52.43
2023-05-01T03:07:04.624Z,52.43
2023-05-01T03:10:07.785Z,52.48
2023-05-01T03:13:13.204Z,52.48
2023-05-01T03:16:15.329Z,52.53
2023-05-01T03:19:17.448Z,52.58
2023-05-01T03:22:19.561Z,52.52
2023-05-01T03:25:21.678Z,52.59
2023-05-01T03:28:23.861Z,52.59
2023-05-01T03:31:26.010Z,52.51
2023-05-01T03:34:28.052Z,52.61
2023-05-01T03:37:30.292Z,52.62
2023-05-01T03:40:32.336Z,52.65
2023-05-01T03:43:34.703Z,52.62
2023-05-01T03:46:36.857Z,52.69
2023-05-01T03:49:38.856Z,52.65
2023-05-01T03:52:40.876Z,52.68
2023-05-01T03:55:43.604Z,52.65
2023-05-01T03:58:45.650Z,52.62
2023-05-01T04:01:47.863Z,52.61
2023-05-01T04:04:50.197Z,52.69
2023-05-01T04:07:52.270Z,52.58
2023-05-01T04:10:54.308Z,52.69
2023-05-01T04:13:56.423Z,52.65
2023-05-01T04:16:59.271Z,52.67
2023-05-01T04:20:01.293Z,52.66
2023-05-01T04:23:03.321Z,52.65
2023-05-01T04:26:05.381Z,52.54
2023-05-01T04:29:07.450Z,52.43
2023-05-01T04:32:09.507Z,52.68
2023-05-01T04:35:12.410Z,52.72
2023-05-01T04:38:14.438Z,53.03
2023-05-01T04:41:16.630Z,53.11
2023-05-01T04:44:18.683Z,53.22
2023-05-01T04:47:20.809Z,53.21
2023-05-01T04:50:22.970Z,52.98
2023-05-01T04:53:25.198Z,52.86
2023-05-01T04:56:27.528Z,52.75
2023-05-01T04:59:29.603Z,52.59
2023-05-01T05:02:31.738Z,52.65
2023-05-01T05:05:34.066Z,52.65
2023-05-01T05:08:36.091Z,52.69
2023-05-01T05:11:38.324Z,52.56
2023-05-01T05:14:43.266Z,52.73
2023-05-01T05:17:45.689Z,52.70
2023-05-01T05:20:47.814Z,52.65
2023-05-01T05:23:49.920Z,52.69
2023-05-01T05:26:51.928Z,52.64
2023-05-01T05:29:54.164Z,52.64
2023-05-01T05:32:56.643Z,52.61
2023-05-01T05:36:00.142Z,52.49
2023-05-01T05:39:02.966Z,52.52
2023-05-01T05:42:05.233Z,52.48
2023-05-01T05:45:07.978Z,52.39
2023-05-01T05:48:10.106Z,52.33
2023-05-01T05:51:12.336Z,52.32
2023-05-01T05:54:14.614Z,52.27
2023-05-01T05:57:16.635Z,52.24
2023-05-01T06:00:18.930Z,52.12
2023-05-01T06:03:21.303Z,51.79
2023-05-01T06:06:24.025Z,51.90
2023-05-01T06:09:26.389Z,51.84
2023-05-01T06:12:29.649Z,51.53
2023-05-01T06:15:32.017Z,51.23
2023-05-01T06:18:34.186Z,51.13
2023-05-01T06:21:36.455Z,51.21
2023-05-01T06:24:39.732Z,51.16
2023-05-01T06:27:42.033Z,51.08
2023-05-01T06:30:44.145Z,51.01
2023-05-01T06:33:46.302Z,51.00
2023-05-01T06:36:48.337Z,50.99
2023-05-01T06:39:50.408Z,50.98
2023-05-01T06:42:52.507Z,50.97
2023-05-01T06:45:54.551Z,50.97
2023-05-01T06:48:56.585Z,50.98
2023-05-01T06:51:58.642Z,50.98
2023-05-01T06:55:01.225Z,51.01
2023-05-01T06:58:15.919Z,51.00
2023-05-01T07:01:24.392Z,51.07
2023-05-01T07:04:26.567Z,51.04
2023-05-01T07:07:29.091Z,51.09
2023-05-01T07:10:31.160Z,51.05
2023-05-01T07:13:33.158Z,50.82
2023-05-01T07:16:35.428Z,50.62
2023-05-01T07:19:37.987Z,50.48
2023-05-01T07:22:40.015Z,50.40
2023-05-01T07:25:44.382Z,50.38
2023-05-01T07:28:46.751Z,50.39
2023-05-01T07:31:48.804Z,50.30
2023-05-01T07:34:50.838Z,50.40
2023-05-01T07:37:52.976Z,50.89
2023-05-01T07:40:55.956Z,50.71
2023-05-01T07:44:01.168Z,51.66
2023-05-01T07:47:06.538Z,51.27
2023-05-01T07:50:12.424Z,51.31
2023-05-01T07:53:14.697Z,51.22
2023-05-01T07:56:16.920Z,51.12
2023-05-01T07:59:18.965Z,50.64
2023-05-01T08:02:21.022Z,50.94
2023-05-01T08:05:23.128Z,50.43
2023-05-01T08:08:25.234Z,50.64
2023-05-01T08:11:27.382Z,50.88
2023-05-01T08:14:29.590Z,51.95
2023-05-01T08:17:31.674Z,51.11
2023-05-01T08:20:33.744Z,51.46
2023-05-01T08:23:35.844Z,52.58
2023-05-01T08:26:38.412Z,51.80
2023-05-01T08:29:40.525Z,51.75
2023-05-01T08:32:42.644Z,51.47
2023-05-01T08:35:44.731Z,50.92
2023-05-01T08:38:46.900Z,50.77
2023-05-01T08:41:48.962Z,50.87
2023-05-01T08:44:54.176Z,50.87
2023-05-01T08:47:58.469Z,50.97
2023-05-01T08:51:01.969Z,51.01
2023-05-01T08:54:05.657Z,50.57
2023-05-01T08:57:10.666Z,50.54
2023-05-01T09:00:19.430Z,50.53
2023-05-01T09:03:22.411Z,50.69
2023-05-01T09:06:28.474Z,50.56
2023-05-01T09:09:31.877Z,50.60
2023-05-01T09:12:36.963Z,51.87
2023-05-01T09:15:39.389Z,52.06
2023-05-01T09:18:41.828Z,52.08
2023-05-01T09:21:44.493Z,52.11
2023-05-01T09:24:47.015Z,51.17
2023-05-01T09:27:49.521Z,50.79
2023-05-01T09:30:51.686Z,50.81
2023-05-01T09:33:59.240Z,50.88
2023-05-01T09:37:01.334Z,50.79
2023-05-01T09:40:14.595Z,50.92
2023-05-01T09:43:29.975Z,50.66
2023-05-01T09:46:42.195Z,50.53
2023-05-01T09:49:50.510Z,50.56
2023-05-01T09:52:52.683Z,50.48
2023-05-01T09:56:02.084Z,50.53
2023-05-01T09:59:19.938Z,50.40
2023-05-01T10:02:32.771Z,50.46
2023-05-01T10:05:44.661Z,50.38
2023-05-01T10:08:50.895Z,50.59
2023-05-01T10:11:57.287Z,50.36
2023-05-01T10:15:03.398Z,50.33
2023-05-01T10:18:13.666Z,50.06
2023-05-01T10:21:16.726Z,50.14
2023-05-01T10:24:18.925Z,50.08
2023-05-01T10:27:24.188Z,50.02
2023-05-01T10:30:30.175Z,49.84
2023-05-01T10:33:32.988Z,49.83
2023-05-01T10:36:41.220Z,49.73
2023-05-01T10:39:43.602Z,49.79
2023-05-01T10:43:17.830Z,49.83
2023-05-01T10:46:19.988Z,49.86
2023-05-01T10:49:22.348Z,49.80
2023-05-01T10:52:24.406Z,49.76
2023-05-01T10:55:43.501Z,49.73
2023-05-01T10:58:51.336Z,49.79
2023-05-01T11:01:54.159Z,49.69
2023-05-01T11:04:56.867Z,49.47
2023-05-01T11:08:31.620Z,49.31
2023-05-01T11:11:33.719Z,49.35
2023-05-01T11:14:54.613Z,49.35
2023-05-01T11:17:57.565Z,49.25
2023-05-01T11:21:02.260Z,49.27
2023-05-01T11:24:06.635Z,49.34
2023-05-01T11:27:12.894Z,49.40
2023-05-01T11:30:15.072Z,49.36
2023-05-01T11:33:25.234Z,49.27
2023-05-01T11:36:28.278Z,49.34
2023-05-01T11:39:30.345Z,49.30
2023-05-01T11:42:32.424Z,49.32
2023-05-01T11:45:36.716Z,49.37
2023-05-01T11:48:39.320Z,49.44
2023-05-01T11:51:41.377Z,49.50
2023-05-01T11:54:49.528Z,49.51
2023-05-01T11:57:54.467Z,49.58
2023-05-01T12:00:56.554Z,49.64
2023-05-01T12:03:58.774Z,49.71
2023-05-01T12:07:01.140Z,49.77
2023-05-01T12:10:04.455Z,49.87
2023-05-01T12:13:08.205Z,50.02
2023-05-01T12:16:10.767Z,50.07
2023-05-01T12:19:16.595Z,50.15
2023-05-01T12:22:19.390Z,50.22
2023-05-01T12:25:21.452Z,50.29
2023-05-01T12:28:23.745Z,50.38
2023-05-01T12:31:26.964Z,50.44
2023-05-01T12:34:33.360Z,50.53
2023-05-01T12:37:35.685Z,50.60
2023-05-01T12:40:39.518Z,50.61
2023-05-01T12:43:43.768Z,50.66
2023-05-01T12:46:54.011Z,50.74
2023-05-01T12:50:02.922Z,50.79
2023-05-01T12:53:05.856Z,50.73
2023-05-01T12:56:08.068Z,50.72
2023-05-01T12:59:21.888Z,50.71
2023-05-01T13:02:30.860Z,50.83
2023-05-01T13:05:33.134Z,50.87
2023-05-01T13:08:39.436Z,50.92
2023-05-01T13:11:41.703Z,51.04
2023-05-01T13:14:44.209Z,51.03
2023-05-01T13:17:46.553Z,51.03
2023-05-01T13:20:48.630Z,50.98
2023-05-01T13:24:01.249Z,51.06
2023-05-01T13:27:05.191Z,50.88
2023-05-01T13:30:08.041Z,50.84
2023-05-01T13:33:11.474Z,50.74
2023-05-01T13:36:25.050Z,50.71
2023-05-01T13:39:28.703Z,50.61
2023-05-01T13:42:31.088Z,50.69
2023-05-01T13:45:33.130Z,50.62
2023-05-01T13:48:35.249Z,50.81
2023-05-01T13:51:42.685Z,50.75
2023-05-01T13:54:45.861Z,50.66
2023-05-01T13:57:47.950Z,50.81
2023-05-01T14:00:50.081Z,50.75
2023-05-01T14:03:53.321Z,50.64
2023-05-01T14:06:55.680Z,50.54
2023-05-01T14:10:02.278Z,50.51
2023-05-01T14:13:05.104Z,50.54
2023-05-01T14:16:17.045Z,50.63
2023-05-01T14:19:19.229Z,50.62
2023-05-01T14:22:22.194Z,50.76
2023-05-01T14:25:27.135Z,50.70
2023-05-01T14:28:30.403Z,50.81
2023-05-01T14:31:32.537Z,50.82
2023-05-01T14:34:34.646Z,50.76
2023-05-01T14:37:37.440Z,50.76
2023-05-01T14:40:40.941Z,50.77
2023-05-01T14:43:44.351Z,50.71
2023-05-01T14:46:51.285Z,50.67
2023-05-01T14:49:54.271Z,50.56
2023-05-01T14:52:58.397Z,50.82
2023-05-01T14:56:00.496Z,50.90
2023-05-01T14:59:02.802Z,50.79
2023-05-01T15:02:05.010Z,51.04
2023-05-01T15:05:07.329Z,50.98
2023-05-01T15:08:09.748Z,50.88
2023-05-01T15:11:14.245Z,50.89
2023-05-01T15:14:16.612Z,50.93
2023-05-01T15:17:18.620Z,50.82
2023-05-01T15:20:20.816Z,50.83
2023-05-01T15:23:25.016Z,50.64
2023-05-01T15:26:27.148Z,50.25
2023-05-01T15:29:29.502Z,50.72
2023-05-01T15:32:31.949Z,50.35
2023-05-01T15:35:34.305Z,50.52
2023-05-01T15:38:36.350Z,50.02
2023-05-01T15:41:38.716Z,50.49
2023-05-01T15:44:41.008Z,50.35
2023-05-01T15:47:43.122Z,50.28
2023-05-01T15:50:46.722Z,50.15
2023-05-01T15:53:50.962Z,50.37
2023-05-01T15:56:53.290Z,50.47
2023-05-01T15:59:55.966Z,50.24
2023-05-01T16:02:58.234Z,50.59
2023-05-01T16:06:00.675Z,50.47
2023-05-01T16:09:04.923Z,50.67
2023-05-01T16:12:08.172Z,50.68
2023-05-01T16:15:10.892Z,50.71
2023-05-01T16:18:20.706Z,50.72
2023-05-01T16:21:24.089Z,50.88
2023-05-01T16:24:26.424Z,50.98
2023-05-01T16:27:28.871Z,51.05
2023-05-01T16:30:30.977Z,50.74
2023-05-01T16:33:34.512Z,50.72
2023-05-01T16:36:37.792Z,50.92
2023-05-01T16:39:39.870Z,50.95
2023-05-01T16:42:42.385Z,51.04
2023-05-01T16:45:44.598Z,51.17
2023-05-01T16:48:46.638Z,51.07
2023-05-01T16:51:48.875Z,51.17
2023-05-01T16:54:51.340Z,51.30
2023-05-01T16:57:54.282Z,51.26
2023-05-01T17:00:57.646Z,51.49
2023-05-01T17:03:59.716Z,51.42
2023-05-01T17:07:01.844Z,51.63
2023-05-01T17:10:04.281Z,51.62
2023-05-01T17:13:07.651Z,51.62
2023-05-01T17:16:10.492Z,51.72
2023-05-01T17:19:13.546Z,51.88
2023-05-01T17:22:15.618Z,51.91
2023-05-01T17:25:17.747Z,51.88
2023-05-01T17:28:19.799Z,51.85
2023-05-01T17:31:22.658Z,52.00
2023-05-01T17:34:25.004Z,51.89
2023-05-01T17:37:27.038Z,52.17
2023-05-01T17:40:29.064Z,52.11
2023-05-01T17:43:31.141Z,52.09
2023-05-01T17:46:33.400Z,52.07
2023-05-01T17:49:35.603Z,52.04
2023-05-01T17:52:39.365Z,52.04
2023-05-01T17:55:41.576Z,51.89
2023-05-01T17:58:43.623Z,52.00
2023-05-01T18:01:45.817Z,52.04
2023-05-01T18:04:50.150Z,52.00
2023-05-01T18:07:52.321Z,52.11
2023-05-01T18:10:54.364Z,52.05
2023-05-01T18:13:56.410Z,52.03
2023-05-01T18:16:58.532Z,52.11
2023-05-01T18:20:00.927Z,52.11
2023-05-01T18:23:03.240Z,52.07
2023-05-01T18:26:05.403Z,52.09
2023-05-01T18:29:07.676Z,52.09
2023-05-01T18:32:12.768Z,52.16
2023-05-01T18:35:16.731Z,52.27
2023-05-01T18:38:18.775Z,52.29
2023-05-01T18:41:21.353Z,52.29
2023-05-01T18:44:23.444Z,52.31
2023-05-01T18:47:26.703Z,52.42
2023-05-01T18:50:28.951Z,52.43
2023-05-01T18:53:31.089Z,52.52
2023-05-01T18:56:34.238Z,52.55
2023-05-01T18:59:36.364Z,52.62
2023-05-01T19:02:39.121Z,52.72
2023-05-01T19:05:41.412Z,52.74
2023-05-01T19:08:43.545Z,52.75
2023-05-01T19:11:45.551Z,52.60
2023-05-01T19:14:47.690Z,52.87
2023-05-01T19:17:49.932Z,52.98
2023-05-01T19:20:52.011Z,52.91
2023-05-01T19:23:54.086Z,53.04
2023-05-01T19:26:56.225Z,52.98
2023-05-01T19:30:00.926Z,53.04
2023-05-01T19:33:04.200Z,53.13
2023-05-01T19:36:06.350Z,52.92
2023-05-01T19:39:08.515Z,52.85
2023-05-01T19:42:10.873Z,52.91
2023-05-01T19:45:13.125Z,52.89
2023-05-01T19:48:15.728Z,52.93
2023-05-01T19:51:17.770Z,53.01
2023-05-01T19:54:20.035Z,53.06
2023-05-01T19:57:22.262Z,53.11
2023-05-01T20:00:24.467Z,53.24
2023-05-01T20:03:26.691Z,52.98
2023-05-01T20:06:28.846Z,53.04
2023-05-01T20:09:31.658Z,53.00
2023-05-01T20:12:34.042Z,53.10
2023-05-01T20:15:37.928Z,53.07
2023-05-01T20:18:39.982Z,53.04
2023-05-01T20:21:42.001Z,53.30
2023-05-01T20:24:44.137Z,53.17
2023-05-01T20:27:46.288Z,53.25
2023-05-01T20:30:49.538Z,53.17
2023-05-01T20:33:51.838Z,53.17
2023-05-01T20:36:53.985Z,53.30
2023-05-01T20:39:56.184Z,53.28
2023-05-01T20:42:59.470Z,53.25
2023-05-01T20:46:01.800Z,53.21
2023-05-01T20:49:08.360Z,53.32
2023-05-01T20:52:10.760Z,53.30
2023-05-01T20:55:13.199Z,53.44
2023-05-01T20:58:15.496Z,53.46
2023-05-01T21:01:17.630Z,53.49
2023-05-01T21:04:19.856Z,53.51
2023-05-01T21:07:21.918Z,53.49
2023-05-01T21:10:24.302Z,53.40
2023-05-01T21:13:27.717Z,53.53
2023-05-01T21:16:29.911Z,53.46
2023-05-01T21:19:41.334Z,53.58
2023-05-01T21:22:45.483Z,53.71
2023-05-01T21:25:47.546Z,53.59
2023-05-01T21:28:49.632Z,53.52
2023-05-01T21:31:51.738Z,53.67
2023-05-01T21:34:54.092Z,53.71
2023-05-01T21:37:56.634Z,53.68
2023-05-01T21:40:58.674Z,53.78
2023-05-01T21:44:02.542Z,53.80
2023-05-01T21:47:04.849Z,53.81
2023-05-01T21:50:07.868Z,53.71
2023-05-01T21:53:09.951Z,53.73
2023-05-01T21:56:13.907Z,53.78
2023-05-01T21:59:18.327Z,53.75
2023-05-01T22:02:20.897Z,53.75
2023-05-01T22:05:23.292Z,53.84
2023-05-01T22:08:26.025Z,53.88
2023-05-01T22:11:28.094Z,53.91
2023-05-01T22:14:40.198Z,53.84
2023-05-01T22:17:46.189Z,53.96
2023-05-01T22:20:48.300Z,53.82
2023-05-01T22:23:50.360Z,53.84
2023-05-01T22:26:52.462Z,54.07
2023-05-01T22:29:54.629Z,53.89
2023-05-01T22:32:57.064Z,53.88
2023-05-01T22:35:59.157Z,53.94
2023-05-01T22:39:01.380Z,53.97
2023-05-01T22:42:06.463Z,53.99
2023-05-01T22:45:08.810Z,53.97
2023-05-01T22:48:10.952Z,54.04
2023-05-01T22:51:13.030Z,54.03
2023-05-01T22:54:15.217Z,54.10
2023-05-01T22:57:17.218Z,54.05
2023-05-01T23:00:19.396Z,54.07
2023-05-01T23:03:21.673Z,54.14
2023-05-01T23:06:23.860Z,54.06
2023-05-01T23:09:26.337Z,53.97
2023-05-01T23:12:28.754Z,54.06
2023-05-01T23:15:30.789Z,54.01
2023-05-01T23:18:33.197Z,54.04
2023-05-01T23:21:35.339Z,53.89
2023-05-01T23:24:48.121Z,54.04
2023-05-01T23:27:52.216Z,54.09
2023-05-01T23:31:02.508Z,54.02
2023-05-01T23:34:04.660Z,54.16
2023-05-01T23:37:06.801Z,54.04
2023-05-01T23:40:09.548Z,54.06
2023-05-01T23:43:12.910Z,54.00
2023-05-01T23:46:15.119Z,54.04
2023-05-01T23:49:17.167Z,54.12
2023-05-01T23:52:19.378Z,54.11
2023-05-01T23:55:21.601Z,54.18
2023-05-01T23:58:23.731Z,54.15
